createdAt,value
2019-05-21T00:02:02.602Z,100057.73
2019-05-21T00:04:32.750Z,100051.64
2019-05-21T00:07:02.823Z,100055.45
2019-05-21T00:09:32.922Z,100059.20
2019-05-21T00:12:03.159Z,100063.38
2019-05-21T00:14:33.265Z,100065.58
2019-05-21T00:17:03.329Z,100063.76
2019-05-21T00:19:33.394Z,100069.64
2019-05-21T00:22:03.453Z,100067.25
2019-05-21T00:24:33.582Z,100066.31
2019-05-21T00:27:03.694Z,100070.02
2019-05-21T00:30:09.691Z,100059.76
2019-05-21T00:33:15.764Z,100061.86
2019-05-21T00:36:23.103Z,100068.02
2019-05-21T00:39:29.036Z,100072.30
2019-05-21T00:42:03.295Z,100070.59
2019-05-21T00:44:44.023Z,100072.58
2019-05-21T00:47:14.180Z,100076.28
2019-05-21T00:49:44.304Z,100077.44
2019-05-21T00:52:14.368Z,100069.61
2019-05-21T00:54:44.484Z,100068.22
2019-05-21T00:57:14.558Z,100065.56
2019-05-21T00:59:44.666Z,100070.30
2019-05-21T01:02:15.438Z,100078.55
2019-05-21T01:04:59.670Z,100079.37
2019-05-21T01:07:17.396Z,100080.70
2019-05-21T01:09:47.479Z,100080.31
2019-05-21T01:12:17.561Z,100091.53
2019-05-21T01:14:47.658Z,100090.00
2019-05-21T01:17:17.734Z,100086.22
2019-05-21T01:19:47.873Z,100099.31
2019-05-21T01:22:17.994Z,100092.38
2019-05-21T01:24:48.300Z,100099.28
2019-05-21T01:27:18.429Z,100097.12
2019-05-21T01:29:50.545Z,100086.93
2019-05-21T01:32:51.785Z,100082.88
2019-05-21T01:35:21.876Z,100088.50
2019-05-21T01:37:52.717Z,100082.75
2019-05-21T01:40:23.029Z,100087.48
2019-05-21T01:42:56.312Z,100097.16
2019-05-21T01:45:26.569Z,100091.07
2019-05-21T01:47:56.702Z,100090.29
2019-05-21T01:50:26.922Z,100089.05
2019-05-21T01:52:59.928Z,100097.11
2019-05-21T01:55:30.027Z,100097.03
2019-05-21T01:58:00.215Z,100090.88
2019-05-21T02:00:30.307Z,100091.36
2019-05-21T02:03:00.541Z,100092.11
2019-05-21T02:05:33.315Z,100093.63
2019-05-21T02:08:02.721Z,100099.97
2019-05-21T02:10:32.857Z,100101.63
2019-05-21T02:13:02.953Z,100104.44
2019-05-21T02:15:33.042Z,100114.52
2019-05-21T02:18:03.118Z,100108.42
2019-05-21T02:20:33.283Z,100111.41
2019-05-21T02:23:03.463Z,100117.86
2019-05-21T02:25:33.555Z,100116.93
2019-05-21T02:28:03.652Z,100105.23
2019-05-21T02:30:33.717Z,100102.81
2019-05-21T02:33:03.873Z,100112.95
2019-05-21T02:35:52.383Z,100108.81
2019-05-21T02:38:05.827Z,100105.67
2019-05-21T02:40:35.932Z,100110.78
2019-05-21T02:43:06.208Z,100110.63
2019-05-21T02:45:36.323Z,100104.35
2019-05-21T02:48:06.436Z,100103.98
2019-05-21T02:50:36.566Z,100105.08
2019-05-21T02:53:06.689Z,100109.75
2019-05-21T02:55:36.747Z,100115.84
2019-05-21T02:58:07.026Z,100116.39
2019-05-21T03:00:54.858Z,100116.62
2019-05-21T03:03:27.790Z,100108.81
2019-05-21T03:06:13.100Z,100106.77
2019-05-21T03:08:29.687Z,100101.45
2019-05-21T03:10:59.824Z,100108.88
2019-05-21T03:13:29.982Z,100102.57
2019-05-21T03:16:00.009Z,100101.94
2019-05-21T03:18:30.075Z,100102.97
2019-05-21T03:21:00.247Z,100104.44
2019-05-21T03:23:30.414Z,100098.80
2019-05-21T03:26:00.486Z,100098.73
2019-05-21T03:28:30.545Z,100098.98
2019-05-21T03:31:00.716Z,100101.63
2019-05-21T03:33:30.865Z,100095.16
2019-05-21T03:36:00.978Z,100093.97
2019-05-21T03:38:31.069Z,100092.94
2019-05-21T03:41:01.217Z,100094.27
2019-05-21T03:43:31.279Z,100094.27
2019-05-21T03:46:01.395Z,100099.19
2019-05-21T03:48:31.486Z,100103.75
2019-05-21T03:51:01.732Z,100110.05
2019-05-21T03:53:31.822Z,100113.48
2019-05-21T03:56:01.913Z,100110.89
2019-05-21T03:58:32.015Z,100111.19
2019-05-21T04:01:02.093Z,100111.67
2019-05-21T04:03:32.216Z,100113.48
2019-05-21T04:06:02.365Z,100119.16
2019-05-21T04:08:32.445Z,100117.83
2019-05-21T04:11:02.605Z,100123.14
2019-05-21T04:13:32.941Z,100121.66
2019-05-21T04:16:12.594Z,100121.06
2019-05-21T04:18:50.308Z,100134.73
2019-05-21T04:21:20.661Z,100127.70
2019-05-21T04:23:50.736Z,100124.11
2019-05-21T04:26:20.858Z,100136.52
2019-05-21T04:28:50.990Z,100123.14
2019-05-21T04:31:21.069Z,100129.23
2019-05-21T04:33:51.169Z,100130.41
2019-05-21T04:36:21.263Z,100132.67
2019-05-21T04:38:51.340Z,100146.80
2019-05-21T04:41:21.437Z,100141.34
2019-05-21T04:43:51.521Z,100154.77
2019-05-21T04:46:21.751Z,100167.05
2019-05-21T04:48:51.805Z,100159.23
2019-05-21T04:51:21.870Z,100169.85
2019-05-21T04:53:51.943Z,100159.44
2019-05-21T04:56:22.041Z,100160.41
2019-05-21T04:58:52.142Z,100158.84
2019-05-21T05:01:22.232Z,100153.89
2019-05-21T05:03:52.330Z,100147.97
2019-05-21T05:06:22.432Z,100148.27
2019-05-21T05:08:55.542Z,100145.37
2019-05-21T05:11:25.634Z,100143.02
2019-05-21T05:13:55.810Z,100147.45
2019-05-21T05:16:39.170Z,100151.67
2019-05-21T05:19:09.268Z,100153.55
2019-05-21T05:21:39.480Z,100149.70
2019-05-21T05:24:09.564Z,100145.19
2019-05-21T05:26:39.653Z,100143.85
2019-05-21T05:29:09.736Z,100138.73
2019-05-21T05:31:39.852Z,100146.27
2019-05-21T05:34:09.969Z,100139.08
2019-05-21T05:36:40.138Z,100140.80
2019-05-21T05:39:10.181Z,100147.84
2019-05-21T05:41:41.094Z,100149.02
2019-05-21T05:44:11.195Z,100156.44
2019-05-21T05:46:41.333Z,100155.90
2019-05-21T05:49:16.960Z,100154.38
2019-05-21T05:51:47.072Z,100154.61
2019-05-21T05:54:17.282Z,100156.56
2019-05-21T05:56:47.379Z,100162.32
2019-05-21T05:59:17.497Z,100158.48
2019-05-21T06:01:47.584Z,100166.46
2019-05-21T06:04:17.692Z,100162.80
2019-05-21T06:06:47.785Z,100169.12
2019-05-21T06:09:17.875Z,100162.43
2019-05-21T06:11:47.980Z,100161.43
2019-05-21T06:14:18.056Z,100166.80
2019-05-21T06:16:48.226Z,100168.84
2019-05-21T06:19:18.306Z,100161.73
2019-05-21T06:21:48.420Z,100159.81
2019-05-21T06:24:18.509Z,100168.02
2019-05-21T06:26:48.623Z,100171.42
2019-05-21T06:29:18.840Z,100168.52
2019-05-21T06:31:48.944Z,100172.33
2019-05-21T06:34:19.094Z,100176.80
2019-05-21T06:36:49.212Z,100171.23
2019-05-21T06:39:19.375Z,100182.64
2019-05-21T06:41:49.472Z,100176.16
2019-05-21T06:44:19.577Z,100178.22
2019-05-21T06:46:49.719Z,100185.45
2019-05-21T06:49:19.785Z,100188.09
2019-05-21T06:51:49.889Z,100192.48
2019-05-21T06:54:19.996Z,100199.13
2019-05-21T06:56:50.065Z,100196.47
2019-05-21T06:59:20.163Z,100194.76
2019-05-21T07:01:50.244Z,100200.46
2019-05-21T07:04:20.341Z,100200.85
2019-05-21T07:06:50.460Z,100203.36
2019-05-21T07:09:20.518Z,100202.23
2019-05-21T07:11:50.687Z,100203.49
2019-05-21T07:14:20.758Z,100201.45
2019-05-21T07:16:50.923Z,100198.73
2019-05-21T07:19:21.061Z,100199.27
2019-05-21T07:21:51.174Z,100198.75
2019-05-21T07:24:21.267Z,100202.77
2019-05-21T07:26:51.368Z,100209.78
2019-05-21T07:29:21.441Z,100205.78
2019-05-21T07:31:51.570Z,100212.56
2019-05-21T07:34:21.660Z,100216.70
2019-05-21T07:36:51.780Z,100216.16
2019-05-21T07:39:21.949Z,100228.67
2019-05-21T07:41:52.047Z,100229.80
2019-05-21T07:44:22.159Z,100229.03
2019-05-21T07:46:52.296Z,100227.15
2019-05-21T07:49:22.406Z,100233.17
2019-05-21T07:51:52.525Z,100231.69
2019-05-21T07:54:22.625Z,100231.20
2019-05-21T07:56:52.713Z,100232.86
2019-05-21T07:59:22.807Z,100232.08
2019-05-21T08:01:52.909Z,100234.94
2019-05-21T08:04:22.973Z,100235.59
2019-05-21T08:06:53.151Z,100235.55
2019-05-21T08:09:23.233Z,100241.27
2019-05-21T08:11:53.326Z,100237.13
2019-05-21T08:14:23.405Z,100240.27
2019-05-21T08:16:53.542Z,100241.11
2019-05-21T08:19:23.605Z,100246.39
2019-05-21T08:21:53.717Z,100249.64
2019-05-21T08:24:23.912Z,100253.63
2019-05-21T08:26:53.988Z,100244.18
2019-05-21T08:29:24.101Z,100248.66
2019-05-21T08:31:54.182Z,100253.08
2019-05-21T08:34:24.359Z,100251.56
2019-05-21T08:36:54.455Z,100252.93
2019-05-21T08:39:28.876Z,100256.98
2019-05-21T08:41:56.397Z,100254.33
2019-05-21T08:44:26.525Z,100257.18
2019-05-21T08:46:56.634Z,100258.12
2019-05-21T08:49:26.736Z,100265.69
2019-05-21T08:51:56.802Z,100261.63
2019-05-21T08:54:44.572Z,100258.41
2019-05-21T08:57:14.664Z,100266.03
2019-05-21T08:59:44.864Z,100262.31
2019-05-21T09:02:14.963Z,100262.83
2019-05-21T09:04:46.626Z,100267.89
2019-05-21T09:07:16.955Z,100272.86
2019-05-21T09:09:50.693Z,100275.19
2019-05-21T09:12:18.892Z,100278.11
2019-05-21T09:14:49.011Z,100274.16
2019-05-21T09:17:19.127Z,100282.75
2019-05-21T09:19:49.252Z,100273.11
2019-05-21T09:22:19.329Z,100271.36
2019-05-21T09:24:49.453Z,100275.64
2019-05-21T09:27:19.557Z,100283.16
2019-05-21T09:29:49.698Z,100287.28
2019-05-21T09:32:19.779Z,100290.55
2019-05-21T09:34:49.951Z,100291.11
2019-05-21T09:37:20.641Z,100290.35
2019-05-21T09:39:50.954Z,100292.84
2019-05-21T09:42:21.044Z,100294.99
2019-05-21T09:44:51.152Z,100291.27
2019-05-21T09:47:21.223Z,100296.61
2019-05-21T09:49:51.337Z,100295.78
2019-05-21T09:52:21.401Z,100300.89
2019-05-21T09:54:51.637Z,100295.96
2019-05-21T09:57:28.903Z,100301.94
2019-05-21T10:00:07.593Z,100303.91
2019-05-21T10:02:37.686Z,100308.93
2019-05-21T10:05:08.077Z,100303.23
2019-05-21T10:07:40.534Z,100305.27
2019-05-21T10:10:10.126Z,100302.81
2019-05-21T10:12:40.211Z,100300.56
2019-05-21T10:15:10.328Z,100301.13
2019-05-21T10:17:40.404Z,100309.22
2019-05-21T10:20:10.590Z,100304.74
2019-05-21T10:22:40.651Z,100300.96
2019-05-21T10:25:10.864Z,100303.45
2019-05-21T10:27:40.935Z,100309.90
2019-05-21T10:30:11.243Z,100306.06
2019-05-21T10:32:41.343Z,100314.83
2019-05-21T10:35:11.640Z,100317.41
2019-05-21T10:37:53.945Z,100316.20
2019-05-21T10:40:13.712Z,100312.78
2019-05-21T10:42:43.815Z,100315.64
2019-05-21T10:45:14.132Z,100315.25
2019-05-21T10:47:44.216Z,100306.13
2019-05-21T10:50:14.806Z,100308.03
2019-05-21T10:52:44.920Z,100315.08
2019-05-21T10:55:16.104Z,100317.59
2019-05-21T10:57:46.988Z,100320.29
2019-05-21T11:00:23.053Z,100324.64
2019-05-21T11:02:57.461Z,100325.23
2019-05-21T11:05:31.818Z,100323.03
2019-05-21T11:08:22.899Z,100324.48
2019-05-21T11:10:33.816Z,100324.34
2019-05-21T11:13:04.000Z,100325.42
2019-05-21T11:15:34.072Z,100330.19
2019-05-21T11:18:12.153Z,100330.00
2019-05-21T11:20:36.047Z,100326.45
2019-05-21T11:23:06.157Z,100335.89
2019-05-21T11:25:36.226Z,100334.77
2019-05-21T11:28:06.552Z,100340.66
2019-05-21T11:30:36.677Z,100340.66
2019-05-21T11:33:07.404Z,100347.14
2019-05-21T11:35:37.621Z,100349.05
2019-05-21T11:38:07.715Z,100347.14
2019-05-21T11:40:37.807Z,100350.55
2019-05-21T11:43:08.037Z,100346.38
2019-05-21T11:45:38.128Z,100348.48
2019-05-21T11:48:08.230Z,100348.09
2019-05-21T11:50:38.301Z,100348.58
2019-05-21T11:53:08.436Z,100352.76
2019-05-21T11:55:38.507Z,100347.80
2019-05-21T11:58:08.599Z,100352.86
2019-05-21T12:00:38.738Z,100353.22
2019-05-21T12:03:08.846Z,100354.33
2019-05-21T12:05:38.936Z,100358.34
2019-05-21T12:08:09.043Z,100358.52
2019-05-21T12:10:39.156Z,100360.61
2019-05-21T12:13:09.529Z,100354.02
2019-05-21T12:15:39.596Z,100357.17
2019-05-21T12:18:09.777Z,100353.84
2019-05-21T12:20:40.046Z,100351.88
2019-05-21T12:23:10.204Z,100363.33
2019-05-21T12:25:40.327Z,100365.04
2019-05-21T12:28:11.216Z,100361.43
2019-05-21T12:30:41.844Z,100364.87
2019-05-21T12:33:37.428Z,100363.15
2019-05-21T12:36:08.544Z,100367.72
2019-05-21T12:39:14.365Z,100361.05
2019-05-21T12:41:38.809Z,100361.99
2019-05-21T12:44:08.939Z,100361.50
2019-05-21T12:46:39.042Z,100365.39
2019-05-21T12:49:09.192Z,100367.89
2019-05-21T12:51:39.371Z,100364.87
2019-05-21T12:54:09.523Z,100359.15
2019-05-21T12:56:40.869Z,100364.48
2019-05-21T12:59:11.409Z,100356.38
2019-05-21T13:01:47.883Z,100359.15
2019-05-21T13:04:18.059Z,100374.20
2019-05-21T13:06:48.182Z,100362.37
2019-05-21T13:09:32.288Z,100369.05
2019-05-21T13:11:50.312Z,100368.94
2019-05-21T13:14:20.711Z,100363.89
2019-05-21T13:16:51.104Z,100370.38
2019-05-21T13:19:21.412Z,100373.81
2019-05-21T13:21:51.587Z,100379.95
2019-05-21T13:24:21.753Z,100379.84
2019-05-21T13:26:51.873Z,100385.46
2019-05-21T13:29:22.131Z,100385.95
2019-05-21T13:31:52.293Z,100385.44
2019-05-21T13:34:22.416Z,100390.64
2019-05-21T13:36:52.625Z,100390.96
2019-05-21T13:39:25.666Z,100387.74
2019-05-21T13:41:55.543Z,100395.55
2019-05-21T13:44:25.818Z,100395.33
2019-05-21T13:46:55.964Z,100391.53
2019-05-21T13:49:26.091Z,100394.94
2019-05-21T13:51:56.483Z,100389.70
2019-05-21T13:54:26.654Z,100396.08
2019-05-21T13:56:57.078Z,100397.67
2019-05-21T13:59:27.448Z,100395.30
2019-05-21T14:01:57.685Z,100392.05
2019-05-21T14:04:27.845Z,100395.28
2019-05-21T14:06:58.062Z,100389.53
2019-05-21T14:09:31.228Z,100392.16
2019-05-21T14:12:01.467Z,100397.66
2019-05-21T14:14:40.830Z,100396.55
2019-05-21T14:17:11.155Z,100392.91
2019-05-21T14:19:41.343Z,100395.38
2019-05-21T14:22:11.521Z,100391.12
2019-05-21T14:24:41.836Z,100395.05
2019-05-21T14:27:11.999Z,100405.61
2019-05-21T14:29:42.179Z,100402.56
2019-05-21T14:32:12.421Z,100403.55
2019-05-21T14:34:42.591Z,100399.35
2019-05-21T14:37:12.721Z,100409.72
2019-05-21T14:39:42.960Z,100403.42
2019-05-21T14:42:13.143Z,100407.61
2019-05-21T14:44:43.265Z,100398.84
2019-05-21T14:47:13.409Z,100402.08
2019-05-21T14:49:43.577Z,100410.64
2019-05-21T14:52:13.817Z,100407.19
2019-05-21T14:54:43.963Z,100409.63
2019-05-21T14:57:14.104Z,100409.48
2019-05-21T14:59:44.301Z,100411.98
2019-05-21T15:02:14.409Z,100414.42
2019-05-21T15:04:45.058Z,100413.00
2019-05-21T15:07:15.782Z,100404.41
2019-05-21T15:09:45.908Z,100411.83
2019-05-21T15:12:16.530Z,100414.17
2019-05-21T15:14:46.867Z,100412.53
2019-05-21T15:17:17.229Z,100418.31
2019-05-21T15:19:49.970Z,100413.78
2019-05-21T15:22:20.039Z,100415.73
2019-05-21T15:24:50.413Z,100418.17
2019-05-21T15:27:20.745Z,100424.89
2019-05-21T15:29:50.878Z,100419.87
2019-05-21T15:32:20.998Z,100417.86
2019-05-21T15:34:51.603Z,100426.57
2019-05-21T15:37:21.854Z,100424.67
2019-05-21T15:39:52.199Z,100415.47
2019-05-21T15:42:22.350Z,100417.41
2019-05-21T15:44:52.605Z,100426.48
2019-05-21T15:47:22.770Z,100433.50
2019-05-21T15:49:52.997Z,100437.48
2019-05-21T15:52:23.384Z,100433.86
2019-05-21T15:54:53.545Z,100442.75
2019-05-21T15:57:24.099Z,100444.84
2019-05-21T15:59:54.357Z,100449.39
2019-05-21T16:02:24.888Z,100452.41
2019-05-21T16:04:55.678Z,100457.17
2019-05-21T16:07:26.546Z,100451.16
2019-05-21T16:09:57.295Z,100462.60
2019-05-21T16:12:27.859Z,100460.48
2019-05-21T16:14:58.112Z,100458.88
2019-05-21T16:17:28.242Z,100459.28
2019-05-21T16:19:58.377Z,100459.98
2019-05-21T16:22:28.507Z,100467.54
2019-05-21T16:24:59.074Z,100468.81
2019-05-21T16:27:29.312Z,100459.92
2019-05-21T16:29:59.555Z,100463.86
2019-05-21T16:32:30.115Z,100461.73
2019-05-21T16:35:00.761Z,100460.13
2019-05-21T16:37:31.029Z,100461.63
2019-05-21T16:40:01.731Z,100458.05
2019-05-21T16:42:32.018Z,100468.70
2019-05-21T16:45:06.186Z,100464.88
2019-05-21T16:47:46.150Z,100467.98
2019-05-21T16:50:13.514Z,100467.03
2019-05-21T16:52:43.814Z,100466.55
2019-05-21T16:55:14.839Z,100463.51
2019-05-21T16:57:45.026Z,100468.41
2019-05-21T17:00:17.405Z,100473.19
2019-05-21T17:02:47.698Z,100472.67
2019-05-21T17:05:17.839Z,100481.56
2019-05-21T17:07:47.974Z,100478.50
2019-05-21T17:10:19.672Z,100484.98
2019-05-21T17:12:49.951Z,100480.91
2019-05-21T17:15:20.225Z,100483.81
2019-05-21T17:17:50.389Z,100490.56
2019-05-21T17:20:20.715Z,100479.43
2019-05-21T17:22:51.606Z,100483.20
2019-05-21T17:25:21.831Z,100487.38
2019-05-21T17:27:52.036Z,100489.70
2019-05-21T17:30:22.466Z,100488.02
2019-05-21T17:32:54.026Z,100489.17
2019-05-21T17:35:24.186Z,100496.53
2019-05-21T17:37:54.737Z,100496.33
2019-05-21T17:40:25.301Z,100487.24
2019-05-21T17:42:55.461Z,100499.29
2019-05-21T17:45:25.890Z,100494.52
2019-05-21T17:47:56.081Z,100492.80
2019-05-21T17:50:26.290Z,100493.06
2019-05-21T17:52:56.534Z,100501.13
2019-05-21T17:55:26.809Z,100496.20
2019-05-21T17:57:57.056Z,100499.51
2019-05-21T18:00:44.810Z,100506.80
2019-05-21T18:03:15.118Z,100502.02
2019-05-21T18:05:47.932Z,100502.78
2019-05-21T18:08:18.606Z,100507.28
2019-05-21T18:10:48.835Z,100511.39
2019-05-21T18:13:19.672Z,100512.31
2019-05-21T18:15:50.231Z,100523.42
2019-05-21T18:18:20.969Z,100520.26
2019-05-21T18:20:51.331Z,100527.28
2019-05-21T18:23:21.485Z,100530.70
2019-05-21T18:25:51.819Z,100534.20
2019-05-21T18:28:21.976Z,100533.19
2019-05-21T18:30:52.425Z,100538.86
2019-05-21T18:33:23.255Z,100542.46
2019-05-21T18:35:53.426Z,100543.48
2019-05-21T18:38:23.609Z,100541.69
2019-05-21T18:40:53.712Z,100550.11
2019-05-21T18:43:26.373Z,100546.98
2019-05-21T18:45:56.524Z,100555.52
2019-05-21T18:48:29.364Z,100556.83
2019-05-21T18:50:59.611Z,100565.18
2019-05-21T18:53:29.845Z,100569.05
2019-05-21T18:56:02.274Z,100577.67
2019-05-21T18:58:41.515Z,100579.58
2019-05-21T19:01:13.205Z,100581.31
2019-05-21T19:03:43.669Z,100582.23
2019-05-21T19:06:13.851Z,100585.75
2019-05-21T19:08:45.320Z,100584.88
2019-05-21T19:11:16.343Z,100595.40
2019-05-21T19:13:46.578Z,100598.52
2019-05-21T19:16:16.974Z,100594.31
2019-05-21T19:18:47.273Z,100598.69
2019-05-21T19:21:17.438Z,100605.38
2019-05-21T19:23:47.729Z,100598.75
2019-05-21T19:26:17.985Z,100598.45
2019-05-21T19:28:50.804Z,100598.80
2019-05-21T19:31:21.204Z,100594.38
2019-05-21T19:33:51.424Z,100607.78
2019-05-21T19:36:22.678Z,100598.18
2019-05-21T19:38:54.448Z,100604.80
2019-05-21T19:41:24.682Z,100610.50
2019-05-21T19:43:54.949Z,100606.28
2019-05-21T19:46:55.587Z,100604.42
2019-05-21T19:49:25.797Z,100608.05
2019-05-21T19:51:56.109Z,100616.06
2019-05-21T19:54:48.729Z,100613.34
2019-05-21T19:57:19.890Z,100612.09
2019-05-21T19:59:51.882Z,100609.51
2019-05-21T20:02:23.023Z,100606.05
2019-05-21T20:05:07.145Z,100611.68
2019-05-21T20:07:37.690Z,100609.51
2019-05-21T20:10:35.096Z,100603.80
2019-05-21T20:13:31.812Z,100606.48
2019-05-21T20:15:53.503Z,100609.13
2019-05-21T20:18:28.730Z,100616.29
2019-05-21T20:21:01.676Z,100611.38
2019-05-21T20:23:33.930Z,100604.83
2019-05-21T20:26:06.244Z,100611.03
2019-05-21T20:28:40.883Z,100615.09
2019-05-21T20:31:11.455Z,100613.87
2019-05-21T20:33:41.668Z,100617.27
2019-05-21T20:36:40.930Z,100614.03
2019-05-21T20:39:14.815Z,100618.09
2019-05-21T20:41:47.423Z,100620.13
2019-05-21T20:44:18.112Z,100622.30
2019-05-21T20:46:49.158Z,100625.91
2019-05-21T20:49:19.868Z,100630.30
2019-05-21T20:52:18.225Z,100639.36
2019-05-21T20:54:42.907Z,100635.08
2019-05-21T20:57:13.614Z,100635.48
2019-05-21T20:59:43.774Z,100632.94
2019-05-21T21:02:14.814Z,100632.59
2019-05-21T21:04:45.131Z,100634.80
2019-05-21T21:07:16.192Z,100639.86
2019-05-21T21:09:47.170Z,100639.77
2019-05-21T21:12:18.782Z,100639.08
2019-05-21T21:14:57.402Z,100647.95
2019-05-21T21:17:27.996Z,100653.77
2019-05-21T21:19:59.088Z,100654.51
2019-05-21T21:22:34.218Z,100657.92
2019-05-21T21:25:05.073Z,100661.50
2019-05-21T21:27:36.306Z,100661.94
2019-05-21T21:30:37.838Z,100666.94
2019-05-21T21:32:56.406Z,100664.47
2019-05-21T21:35:26.858Z,100663.56
2019-05-21T21:37:57.074Z,100670.29
2019-05-21T21:40:27.221Z,100666.91
2019-05-21T21:45:54.449Z,100662.88
2019-05-21T21:48:24.896Z,100657.74
2019-05-21T21:50:55.121Z,100659.59
2019-05-21T21:53:37.709Z,100659.59
2019-05-21T21:56:11.032Z,100656.63
2019-05-21T21:59:10.595Z,100653.16
2019-05-21T22:01:59.335Z,100653.28
2019-05-21T22:04:36.475Z,100641.89
2019-05-21T22:07:06.868Z,100650.02
2019-05-21T22:09:38.726Z,100649.19
2019-05-21T22:12:26.905Z,100653.66
2019-05-21T22:15:01.987Z,100652.45
2019-05-21T22:17:33.182Z,100665.66
2019-05-21T22:20:04.375Z,100655.66
2019-05-21T22:22:37.530Z,100659.33
2019-05-21T22:25:08.122Z,100671.16
2019-05-21T22:27:38.294Z,100667.69
2019-05-21T22:30:08.883Z,100670.39
2019-05-21T22:32:40.509Z,100673.03
2019-05-21T22:35:14.585Z,100684.50
2019-05-21T22:37:44.712Z,100677.41
2019-05-21T22:40:15.544Z,100686.23
2019-05-21T22:42:47.043Z,100692.48
2019-05-21T22:45:18.373Z,100692.02
2019-05-21T22:47:48.586Z,100689.87
2019-05-21T22:50:18.887Z,100693.03
2019-05-21T22:52:49.012Z,100697.80
2019-05-21T22:55:20.768Z,100692.51
2019-05-21T22:57:50.863Z,100689.87
2019-05-21T23:00:21.446Z,100686.79
2019-05-21T23:02:51.584Z,100689.56
2019-05-21T23:05:23.346Z,100690.14
2019-05-21T23:07:53.490Z,100691.87
2019-05-21T23:10:23.832Z,100689.34
2019-05-21T23:12:54.018Z,100683.23
2019-05-21T23:15:25.660Z,100686.72
2019-05-21T23:17:56.252Z,100680.59
2019-05-21T23:20:30.220Z,100693.72
2019-05-21T23:23:00.443Z,100696.92
2019-05-21T23:25:31.607Z,100687.69
2019-05-21T23:28:01.723Z,100692.91
2019-05-21T23:30:31.827Z,100696.51
2019-05-21T23:33:01.932Z,100691.23
2019-05-21T23:35:32.749Z,100700.03
2019-05-21T23:38:03.412Z,100698.36
2019-05-21T23:40:34.714Z,100696.75
2019-05-21T23:43:10.445Z,100701.98
2019-05-21T23:45:43.376Z,100709.00
2019-05-21T23:48:14.473Z,100706.28
2019-05-21T23:50:44.598Z,100711.58
2019-05-21T23:53:16.017Z,100708.52
2019-05-21T23:55:47.129Z,100712.95
2019-05-21T23:58:17.913Z,100712.59
